Terminal Aerodrome Forecast
Issued by NWS

Home | Current Version | Previous Version | Text Only | Print | Product List | Glossary On
Versions: 1 2 3 4 5 6 7 8 9 10 11 12 13 14 15 16 17 18 19 20 21 22 23 24 25
000
FTUS46 KMTR 190500
TAFSFO
TAF
KSFO 190521Z 1906/2012 26008KT P6SM FEW013 SCT200
     FM190900 28010KT P6SM FEW008 SCT015
     FM191900 28015KT P6SM FEW015
     FM192200 28020G28KT P6SM FEW010 BKN250
     FM200200 26010KT P6SM FEW015 BKN250
     FM200800 28004KT P6SM BKN006=

USA.gov is the U.S. government's official web portal to all federal, state and local government web resources and services.